createdAt,value
2019-02-23T00:00:09.123Z,87.30
2019-02-23T00:02:38.452Z,87.00
2019-02-23T00:05:07.771Z,86.70
2019-02-23T00:07:37.148Z,85.90
2019-02-23T00:10:07.332Z,85.40
2019-02-23T00:12:36.627Z,84.90
2019-02-23T00:15:06.184Z,85.00
2019-02-23T00:17:35.523Z,85.10
2019-02-23T00:20:05.188Z,85.20
2019-02-23T00:22:34.626Z,85.20
2019-02-23T00:25:04.004Z,85.50
2019-02-23T00:27:33.366Z,85.40
2019-02-23T00:30:02.716Z,85.10
2019-02-23T00:32:32.047Z,84.80
2019-02-23T00:35:01.360Z,84.60
2019-02-23T00:37:30.640Z,84.90
2019-02-23T00:39:59.944Z,84.60
2019-02-23T00:42:29.250Z,84.70
2019-02-23T00:44:58.596Z,84.70
2019-02-23T00:47:27.868Z,84.70
2019-02-23T00:49:57.188Z,84.90
2019-02-23T00:52:26.562Z,85.20
2019-02-23T00:54:55.864Z,85.60
2019-02-23T00:57:25.302Z,85.10
2019-02-23T00:59:54.551Z,85.80
2019-02-23T01:02:23.925Z,86.50
2019-02-23T01:04:53.223Z,86.00
2019-02-23T01:07:22.531Z,85.40
2019-02-23T01:09:51.865Z,84.90
2019-02-23T01:12:21.260Z,86.00
2019-02-23T01:14:52.965Z,86.70
2019-02-23T01:17:22.321Z,86.70
2019-02-23T01:19:51.592Z,86.00
2019-02-23T01:22:20.902Z,85.70
2019-02-23T01:24:50.379Z,85.80
2019-02-23T01:27:19.680Z,85.50
2019-02-23T01:29:49.118Z,85.80
2019-02-23T01:32:18.580Z,86.10
2019-02-23T01:34:47.959Z,85.50
2019-02-23T01:37:17.252Z,85.70
2019-02-23T01:39:46.681Z,85.30
2019-02-23T01:42:16.028Z,85.20
2019-02-23T01:44:45.552Z,85.50
2019-02-23T01:47:14.865Z,85.60
2019-02-23T01:49:58.616Z,85.30
2019-02-23T01:52:20.151Z,85.60
2019-02-23T01:54:49.486Z,85.50
2019-02-23T01:57:18.772Z,84.80
2019-02-23T01:59:48.092Z,83.80
2019-02-23T02:02:17.576Z,83.50
2019-02-23T02:04:47.558Z,82.70
2019-02-23T02:07:16.884Z,82.20
2019-02-23T02:09:46.371Z,82.30
2019-02-23T02:12:15.719Z,82.10
2019-02-23T02:14:45.225Z,82.20
2019-02-23T02:17:14.897Z,82.10
2019-02-23T02:19:44.188Z,81.90
2019-02-23T02:22:13.503Z,81.90
2019-02-23T02:24:42.888Z,82.50
2019-02-23T02:27:12.260Z,82.40
2019-02-23T02:29:41.697Z,82.10
2019-02-23T02:32:11.166Z,81.90
2019-02-23T02:34:40.519Z,81.60
2019-02-23T02:37:09.840Z,81.40
2019-02-23T02:39:39.951Z,81.20
2019-02-23T02:42:09.276Z,80.90
2019-02-23T02:44:38.596Z,81.20
2019-02-23T02:47:08.056Z,81.40
2019-02-23T02:49:37.553Z,81.40
2019-02-23T02:52:06.730Z,81.70
2019-02-23T02:54:36.086Z,82.10
2019-02-23T02:57:05.392Z,81.60
2019-02-23T02:59:35.743Z,81.80
2019-02-23T03:02:05.077Z,82.20
2019-02-23T03:04:34.464Z,82.20
2019-02-23T03:07:03.829Z,81.70
2019-02-23T03:09:33.997Z,81.90
2019-02-23T03:12:03.305Z,81.70
2019-02-23T03:14:32.603Z,81.50
2019-02-23T03:17:01.983Z,81.80
2019-02-23T03:19:31.259Z,81.60
2019-02-23T03:22:00.537Z,81.30
2019-02-23T03:24:29.778Z,82.10
2019-02-23T03:26:59.106Z,82.00
2019-02-23T03:29:28.527Z,82.20
2019-02-23T03:31:57.873Z,81.90
2019-02-23T03:34:27.212Z,81.70
2019-02-23T03:36:56.641Z,82.30
2019-02-23T03:39:25.940Z,82.50
2019-02-23T03:41:55.228Z,82.30
2019-02-23T03:44:24.559Z,81.80
2019-02-23T03:46:53.861Z,81.80
2019-02-23T03:49:23.151Z,82.40
2019-02-23T03:51:52.540Z,82.40
2019-02-23T03:54:21.908Z,82.00
2019-02-23T03:56:51.280Z,81.60
2019-02-23T03:59:20.604Z,81.80
2019-02-23T04:01:49.955Z,81.80
2019-02-23T04:04:19.311Z,81.90
2019-02-23T04:06:48.640Z,81.90
2019-02-23T04:09:17.915Z,82.10
2019-02-23T04:11:47.207Z,82.00
2019-02-23T04:14:16.500Z,82.00
2019-02-23T04:16:45.873Z,82.00
2019-02-23T04:19:15.232Z,81.50
2019-02-23T04:21:44.591Z,81.50
2019-02-23T04:24:13.917Z,81.50
2019-02-23T04:26:43.284Z,81.20
2019-02-23T04:29:12.652Z,81.10
2019-02-23T04:31:41.936Z,80.60
2019-02-23T04:34:11.278Z,81.10
2019-02-23T04:36:40.589Z,80.60
2019-02-23T04:39:10.059Z,80.80
2019-02-23T04:41:39.406Z,81.10
2019-02-23T04:44:08.696Z,81.30
2019-02-23T04:46:38.125Z,82.20
2019-02-23T04:49:07.524Z,81.60
2019-02-23T04:51:36.876Z,81.50
2019-02-23T04:54:06.244Z,81.20
2019-02-23T04:56:36.526Z,81.20
2019-02-23T04:59:05.903Z,81.60
2019-02-23T05:01:35.702Z,81.70
2019-02-23T05:04:11.688Z,81.20
2019-02-23T05:06:40.995Z,81.20
2019-02-23T05:09:10.320Z,81.00
2019-02-23T05:11:40.334Z,80.80
2019-02-23T05:14:09.678Z,80.90
2019-02-23T05:16:39.089Z,81.00
2019-02-23T05:19:08.454Z,81.30
2019-02-23T05:21:37.722Z,81.50
2019-02-23T05:24:07.115Z,81.30
2019-02-23T05:26:36.456Z,81.60
2019-02-23T05:29:05.840Z,81.10
2019-02-23T05:31:35.185Z,81.10
2019-02-23T05:34:04.508Z,81.80
2019-02-23T05:36:34.695Z,82.30
2019-02-23T05:39:05.284Z,83.30
2019-02-23T05:41:34.710Z,83.80
2019-02-23T05:44:04.028Z,83.30
2019-02-23T05:46:33.352Z,83.00
2019-02-23T05:49:02.648Z,83.00
2019-02-23T05:51:38.787Z,82.70
2019-02-23T05:54:01.382Z,82.30
2019-02-23T05:56:30.713Z,82.40
2019-02-23T05:59:00.051Z,82.40
2019-02-23T06:01:29.353Z,82.70
2019-02-23T06:03:58.734Z,82.60
2019-02-23T06:06:28.048Z,83.20
2019-02-23T06:08:58.401Z,83.70
2019-02-23T06:11:27.812Z,84.10
2019-02-23T06:13:57.097Z,84.40
2019-02-23T06:16:26.465Z,84.20
2019-02-23T06:18:55.772Z,83.80
2019-02-23T06:21:26.180Z,84.10
2019-02-23T06:23:55.524Z,84.30
2019-02-23T06:26:24.821Z,84.40
2019-02-23T06:28:54.116Z,84.40
2019-02-23T06:31:23.510Z,84.40
2019-02-23T06:33:52.795Z,84.20
2019-02-23T06:36:22.082Z,84.10
2019-02-23T06:38:51.488Z,83.90
2019-02-23T06:41:20.833Z,84.20
2019-02-23T06:43:50.192Z,84.10
2019-02-23T06:46:19.496Z,84.60
2019-02-23T06:48:48.925Z,84.60
2019-02-23T06:51:18.192Z,84.90
2019-02-23T06:53:47.567Z,84.70
2019-02-23T06:56:16.877Z,84.80
2019-02-23T06:58:46.185Z,84.60
2019-02-23T07:01:15.565Z,84.40
2019-02-23T07:03:51.581Z,84.80
2019-02-23T07:06:21.966Z,85.30
2019-02-23T07:08:51.831Z,85.40
2019-02-23T07:11:21.181Z,85.60
2019-02-23T07:13:57.136Z,85.70
2019-02-23T07:16:26.465Z,85.70
2019-02-23T07:18:55.766Z,85.80
2019-02-23T07:21:25.149Z,86.40
2019-02-23T07:23:54.556Z,86.50
2019-02-23T07:26:23.888Z,86.40
2019-02-23T07:28:53.662Z,86.50
2019-02-23T07:31:22.992Z,86.00
2019-02-23T07:33:52.324Z,85.70
2019-02-23T07:36:21.737Z,85.10
2019-02-23T07:38:51.093Z,85.30
2019-02-23T07:41:20.412Z,85.30
2019-02-23T07:43:49.773Z,85.20
2019-02-23T07:46:19.072Z,85.20
2019-02-23T07:48:48.417Z,84.60
2019-02-23T07:51:17.906Z,84.40
2019-02-23T07:53:47.235Z,84.00
2019-02-23T07:56:16.515Z,83.60
2019-02-23T07:58:45.824Z,83.00
2019-02-23T08:01:15.143Z,82.70
2019-02-23T08:03:44.477Z,82.30
2019-02-23T08:06:13.824Z,81.80
2019-02-23T08:08:43.143Z,81.40
2019-02-23T08:11:12.509Z,80.50
2019-02-23T08:13:41.855Z,80.50
2019-02-23T08:16:12.193Z,79.80
2019-02-23T08:18:41.552Z,79.50
2019-02-23T08:21:10.912Z,79.10
2019-02-23T08:23:40.956Z,79.80
2019-02-23T08:26:10.378Z,79.30
2019-02-23T08:28:39.852Z,78.80
2019-02-23T08:31:09.195Z,77.90
2019-02-23T08:33:38.520Z,78.70
2019-02-23T08:36:07.931Z,79.00
2019-02-23T08:38:37.892Z,78.10
2019-02-23T08:41:07.167Z,77.90
2019-02-23T08:43:36.485Z,77.10
2019-02-23T08:46:05.848Z,77.10
2019-02-23T08:48:35.982Z,76.90
2019-02-23T08:51:05.310Z,76.40
2019-02-23T08:53:34.648Z,76.30
2019-02-23T08:56:04.031Z,75.70
2019-02-23T08:58:33.372Z,76.10
2019-02-23T09:01:02.750Z,74.80
2019-02-23T09:03:32.257Z,75.00
2019-02-23T09:06:02.152Z,75.00
2019-02-23T09:08:32.172Z,74.90
2019-02-23T09:11:02.101Z,75.40
2019-02-23T09:13:31.456Z,76.10
2019-02-23T09:16:00.779Z,75.10
2019-02-23T09:18:30.156Z,75.30
2019-02-23T09:20:59.568Z,75.00
2019-02-23T09:23:28.909Z,75.50
2019-02-23T09:25:58.193Z,76.00
2019-02-23T09:28:27.505Z,75.20
2019-02-23T09:30:56.872Z,74.10
2019-02-23T09:33:26.183Z,75.80
2019-02-23T09:35:55.483Z,75.00
2019-02-23T09:38:24.787Z,74.30
2019-02-23T09:40:54.116Z,73.90
2019-02-23T09:43:23.437Z,73.30
2019-02-23T09:45:52.724Z,74.80
2019-02-23T09:48:22.063Z,72.90
2019-02-23T09:50:52.020Z,72.90
2019-02-23T09:53:21.499Z,72.20
2019-02-23T09:55:50.868Z,71.90
2019-02-23T09:58:21.152Z,73.40
2019-02-23T10:00:50.546Z,75.70
2019-02-23T10:03:19.925Z,73.20
2019-02-23T10:05:49.273Z,71.40
2019-02-23T10:08:18.660Z,73.20
2019-02-23T10:10:48.109Z,72.80
2019-02-23T10:13:17.449Z,71.50
2019-02-23T10:15:46.795Z,71.00
2019-02-23T10:18:16.109Z,69.90
2019-02-23T10:20:45.460Z,69.30
2019-02-23T10:23:22.111Z,69.50
2019-02-23T10:25:44.168Z,69.20
2019-02-23T10:28:13.554Z,69.00
2019-02-23T10:30:43.017Z,68.30
2019-02-23T10:33:12.406Z,67.50
2019-02-23T10:35:41.812Z,67.30
2019-02-23T10:38:11.117Z,67.10
2019-02-23T10:40:40.459Z,66.80
2019-02-23T10:43:10.477Z,67.30
2019-02-23T10:45:39.893Z,67.00
2019-02-23T10:48:09.348Z,66.90
2019-02-23T10:50:38.717Z,66.30
2019-02-23T10:53:08.040Z,67.30
2019-02-23T10:55:37.398Z,67.00
2019-02-23T10:58:06.812Z,67.30
2019-02-23T11:00:36.104Z,66.80
2019-02-23T11:03:05.492Z,66.90
2019-02-23T11:05:34.844Z,66.60
2019-02-23T11:08:04.216Z,65.90
2019-02-23T11:10:33.582Z,66.40
2019-02-23T11:13:02.954Z,65.60
2019-02-23T11:15:32.257Z,65.30
2019-02-23T11:18:03.414Z,64.70
2019-02-23T11:20:32.923Z,63.70
2019-02-23T11:23:02.270Z,63.90
2019-02-23T11:25:31.572Z,64.40
2019-02-23T11:28:01.096Z,63.30
2019-02-23T11:30:30.412Z,63.20
2019-02-23T11:32:59.732Z,61.70
2019-02-23T11:35:29.061Z,61.70
2019-02-23T11:37:58.384Z,62.30
2019-02-23T11:40:28.356Z,62.00
2019-02-23T11:42:57.735Z,61.80
2019-02-23T11:45:27.375Z,61.60
2019-02-23T11:47:56.740Z,60.50
2019-02-23T11:50:26.045Z,60.90
2019-02-23T11:52:55.329Z,60.90
2019-02-23T11:55:24.704Z,60.30
2019-02-23T11:57:54.007Z,59.50
2019-02-23T12:00:23.597Z,57.90
2019-02-23T12:02:53.050Z,57.60
2019-02-23T12:05:22.378Z,56.60
2019-02-23T12:07:51.765Z,56.50
2019-02-23T12:10:21.063Z,55.80
2019-02-23T12:12:50.444Z,56.50
2019-02-23T12:15:19.780Z,55.50
2019-02-23T12:17:49.105Z,54.30
2019-02-23T12:20:18.446Z,54.10
2019-02-23T12:22:47.804Z,53.90
2019-02-23T12:25:17.841Z,52.80
2019-02-23T12:27:47.693Z,52.50
2019-02-23T12:30:17.008Z,51.50
2019-02-23T12:32:46.407Z,51.40
2019-02-23T12:35:15.768Z,51.40
2019-02-23T12:37:45.089Z,50.20
2019-02-23T12:40:14.585Z,49.80
2019-02-23T12:42:43.944Z,49.80
2019-02-23T12:45:13.372Z,49.80
2019-02-23T12:47:42.763Z,49.10
2019-02-23T12:50:12.351Z,49.10
2019-02-23T12:52:41.672Z,49.10
2019-02-23T12:55:11.088Z,48.90
2019-02-23T12:57:40.444Z,48.40
2019-02-23T13:00:12.171Z,48.60
2019-02-23T13:02:41.496Z,48.40
2019-02-23T13:05:10.825Z,47.80
2019-02-23T13:07:40.589Z,47.70
2019-02-23T13:10:11.482Z,48.00
2019-02-23T13:12:56.905Z,47.60
2019-02-23T13:15:44.179Z,47.50
2019-02-23T13:21:16.969Z,47.10
2019-02-23T13:26:03.669Z,46.60
2019-02-23T13:28:44.902Z,47.10
2019-02-23T13:31:47.400Z,46.50
2019-02-23T13:35:39.025Z,46.50
2019-02-23T13:42:30.412Z,46.30
2019-02-23T13:45:13.208Z,45.50
2019-02-23T13:48:40.310Z,45.80
2019-02-23T13:54:38.656Z,45.40
2019-02-23T14:00:27.882Z,45.30
2019-02-23T14:05:17.782Z,44.60
2019-02-23T14:10:09.525Z,44.20
2019-02-23T14:12:55.845Z,43.40
2019-02-23T14:16:35.119Z,43.60
2019-02-23T14:20:09.451Z,43.40
2019-02-23T14:25:01.173Z,43.70
2019-02-23T14:32:01.820Z,43.10
2019-02-23T14:35:22.235Z,42.80
2019-02-23T14:39:07.059Z,43.20
2019-02-23T14:41:56.211Z,42.10
2019-02-23T14:44:43.531Z,41.90
2019-02-23T14:49:40.133Z,41.10
2019-02-23T14:52:34.726Z,40.20
2019-02-23T14:55:29.670Z,37.70
2019-02-23T14:58:35.136Z,37.10
2019-02-23T15:01:18.930Z,36.30
2019-02-23T15:06:13.647Z,37.40
2019-02-23T15:11:20.551Z,36.90
2019-02-23T15:16:17.155Z,35.70
2019-02-23T15:19:29.785Z,34.40
2019-02-23T15:24:52.188Z,36.10
2019-02-23T15:27:45.379Z,36.50
2019-02-23T15:30:40.272Z,35.90
2019-02-23T15:33:56.881Z,36.10
2019-02-23T15:36:43.466Z,37.00
2019-02-23T15:41:45.313Z,37.80
2019-02-23T15:46:41.981Z,37.80
2019-02-23T15:49:27.703Z,40.30
2019-02-23T15:51:57.159Z,41.10
2019-02-23T15:54:29.120Z,41.60
2019-02-23T15:56:55.881Z,42.40
2019-02-23T15:59:25.334Z,42.40
2019-02-23T16:01:54.705Z,43.40
2019-02-23T16:04:24.160Z,43.40
2019-02-23T16:06:53.582Z,43.90
2019-02-23T16:09:22.944Z,43.50
2019-02-23T16:11:52.285Z,43.70
2019-02-23T16:14:21.613Z,44.00
2019-02-23T16:16:51.554Z,44.70
2019-02-23T16:19:21.876Z,44.90
2019-02-23T16:21:52.942Z,45.10
2019-02-23T16:24:21.847Z,45.60
2019-02-23T16:26:51.144Z,45.90
2019-02-23T16:29:20.520Z,45.50
2019-02-23T16:31:49.923Z,45.60
2019-02-23T16:34:19.367Z,45.90
2019-02-23T16:36:48.684Z,46.10
2019-02-23T16:39:18.596Z,46.90
2019-02-23T16:41:48.073Z,47.20
2019-02-23T16:44:17.439Z,47.00
2019-02-23T16:46:46.776Z,47.00
2019-02-23T16:49:16.224Z,47.50
2019-02-23T16:51:45.492Z,47.80
2019-02-23T16:54:14.809Z,47.60
2019-02-23T16:56:44.190Z,48.20
2019-02-23T16:59:13.575Z,51.50
2019-02-23T17:01:42.959Z,50.40
2019-02-23T17:04:12.400Z,51.10
2019-02-23T17:06:41.789Z,51.80
2019-02-23T17:09:11.109Z,51.30
2019-02-23T17:11:40.516Z,51.20
2019-02-23T17:14:09.944Z,51.80
2019-02-23T17:16:39.280Z,52.80
2019-02-23T17:19:08.584Z,53.30
2019-02-23T17:21:37.890Z,53.20
2019-02-23T17:24:07.195Z,52.50
2019-02-23T17:26:36.976Z,53.50
2019-02-23T17:29:05.898Z,52.60
2019-02-23T17:31:35.227Z,53.80
2019-02-23T17:34:04.599Z,54.00
2019-02-23T17:36:33.908Z,53.70
2019-02-23T17:39:03.324Z,51.90
2019-02-23T17:41:32.662Z,52.00
2019-02-23T17:44:02.050Z,52.50
2019-02-23T17:46:31.376Z,52.30
2019-02-23T17:49:01.558Z,52.30
2019-02-23T17:51:30.919Z,52.60
2019-02-23T17:54:00.278Z,51.70
2019-02-23T17:56:30.153Z,51.90
2019-02-23T17:58:59.455Z,52.00
2019-02-23T18:01:28.898Z,51.80
2019-02-23T18:03:58.236Z,51.70
2019-02-23T18:06:27.560Z,51.70
2019-02-23T18:08:56.984Z,52.10
2019-02-23T18:11:26.311Z,52.20
2019-02-23T18:13:56.928Z,52.40
2019-02-23T18:16:26.188Z,52.60
2019-02-23T18:18:55.483Z,52.90
2019-02-23T18:21:24.930Z,52.90
2019-02-23T18:23:54.230Z,53.20
2019-02-23T18:26:23.589Z,53.40
2019-02-23T18:28:52.942Z,53.20
2019-02-23T18:31:22.304Z,53.40
2019-02-23T18:33:51.648Z,53.20
2019-02-23T18:36:20.980Z,53.60
2019-02-23T18:38:50.774Z,53.70
2019-02-23T18:41:20.137Z,54.10
2019-02-23T18:43:49.439Z,54.40
2019-02-23T18:46:18.756Z,54.30
2019-02-23T18:48:48.097Z,54.50
2019-02-23T18:51:17.376Z,54.60
2019-02-23T18:53:46.739Z,54.50
2019-02-23T18:56:16.119Z,54.70
2019-02-23T18:58:45.440Z,54.90
2019-02-23T19:01:14.810Z,55.10
2019-02-23T19:03:44.163Z,55.10
2019-02-23T19:06:13.501Z,55.00
2019-02-23T19:08:42.876Z,55.10
2019-02-23T19:11:12.328Z,55.20
2019-02-23T19:13:42.285Z,55.20
2019-02-23T19:16:11.567Z,55.20
2019-02-23T19:18:40.913Z,55.10
2019-02-23T19:21:10.285Z,55.10
2019-02-23T19:23:39.611Z,55.40
2019-02-23T19:26:08.948Z,55.20
2019-02-23T19:28:43.183Z,55.20
2019-02-23T19:31:07.643Z,55.40
2019-02-23T19:33:37.020Z,55.90
2019-02-23T19:36:06.319Z,55.80
2019-02-23T19:38:35.659Z,55.90
2019-02-23T19:41:04.978Z,55.90
2019-02-23T19:43:34.939Z,56.00
2019-02-23T19:46:04.279Z,56.10
2019-02-23T19:48:33.593Z,56.50
2019-02-23T19:51:06.836Z,56.60
2019-02-23T19:53:36.184Z,56.70
2019-02-23T19:56:05.520Z,56.50
2019-02-23T19:58:34.806Z,56.80
2019-02-23T20:01:04.138Z,56.60
2019-02-23T20:03:33.456Z,56.90
2019-02-23T20:06:02.839Z,56.80
2019-02-23T20:08:32.579Z,56.80
2019-02-23T20:11:01.887Z,56.50
2019-02-23T20:13:31.216Z,56.10
2019-02-23T20:16:00.591Z,55.60
2019-02-23T20:18:29.863Z,55.40
2019-02-23T20:20:59.232Z,55.40
2019-02-23T20:23:28.500Z,55.80
2019-02-23T20:25:57.842Z,56.00
2019-02-23T20:28:27.291Z,56.60
2019-02-23T20:30:56.664Z,56.60
2019-02-23T20:33:25.971Z,56.40
2019-02-23T20:35:55.327Z,56.80
2019-02-23T20:38:24.624Z,56.60
2019-02-23T20:40:53.968Z,57.10
2019-02-23T20:43:23.285Z,57.10
2019-02-23T20:45:52.591Z,57.60
2019-02-23T20:48:21.940Z,57.90
2019-02-23T20:50:52.188Z,57.90
2019-02-23T20:53:21.588Z,58.00
2019-02-23T20:55:51.800Z,58.10
2019-02-23T20:58:21.138Z,58.60
2019-02-23T21:00:50.488Z,58.50
2019-02-23T21:03:20.615Z,57.90
2019-02-23T21:05:50.009Z,58.00
2019-02-23T21:08:19.324Z,57.90
2019-02-23T21:10:48.597Z,58.00
2019-02-23T21:13:17.905Z,57.80
2019-02-23T21:15:47.188Z,58.60
2019-02-23T21:18:16.480Z,58.40
2019-02-23T21:20:45.884Z,58.70
2019-02-23T21:23:15.208Z,58.70
2019-02-23T21:25:45.152Z,59.40
2019-02-23T21:28:14.431Z,58.80
2019-02-23T21:30:43.759Z,58.70
2019-02-23T21:33:13.043Z,58.90
2019-02-23T21:35:42.355Z,58.90
2019-02-23T21:38:11.889Z,58.10
2019-02-23T21:40:41.232Z,58.20
2019-02-23T21:43:10.579Z,58.80
2019-02-23T21:45:40.088Z,58.90
2019-02-23T21:48:09.414Z,59.10
2019-02-23T21:50:38.691Z,59.00
2019-02-23T21:53:08.054Z,58.90
2019-02-23T21:55:37.452Z,59.30
2019-02-23T21:58:06.737Z,59.40
2019-02-23T22:00:36.111Z,59.80
2019-02-23T22:03:07.081Z,60.00
2019-02-23T22:05:35.509Z,60.20
2019-02-23T22:08:04.910Z,60.50
2019-02-23T22:10:34.244Z,60.90
2019-02-23T22:13:03.634Z,61.00
2019-02-23T22:18:11.962Z,61.60
2019-02-23T22:20:41.316Z,61.90
2019-02-23T22:23:10.709Z,62.10
2019-02-23T22:25:40.043Z,62.10
2019-02-23T22:28:09.532Z,62.20
2019-02-23T22:30:38.829Z,61.90
2019-02-23T22:33:11.189Z,61.40
2019-02-23T22:35:40.636Z,61.80
2019-02-23T22:38:09.985Z,61.50
2019-02-23T22:40:39.304Z,61.20
2019-02-23T22:43:08.645Z,61.10
2019-02-23T22:45:38.010Z,61.20
2019-02-23T22:48:08.140Z,61.00
2019-02-23T22:50:37.540Z,61.30
2019-02-23T22:53:06.965Z,61.00
2019-02-23T22:55:36.276Z,60.60
2019-02-23T22:58:05.636Z,60.80
2019-02-23T23:00:41.129Z,60.50
2019-02-23T23:03:10.492Z,60.60
2019-02-23T23:05:39.848Z,60.30
2019-02-23T23:08:09.838Z,60.00
2019-02-23T23:10:39.140Z,59.70
2019-02-23T23:13:08.521Z,59.80
2019-02-23T23:15:38.758Z,59.50
2019-02-23T23:18:08.124Z,59.70
2019-02-23T23:20:37.512Z,59.90
2019-02-23T23:23:07.832Z,59.60
2019-02-23T23:25:37.195Z,59.70
2019-02-23T23:28:06.485Z,59.70
2019-02-23T23:30:35.977Z,59.50
2019-02-23T23:33:05.309Z,59.40
2019-02-23T23:35:36.210Z,59.00
2019-02-23T23:38:05.761Z,59.70
2019-02-23T23:40:35.074Z,60.00
2019-02-23T23:43:05.343Z,59.90
2019-02-23T23:45:34.606Z,60.40
2019-02-23T23:48:03.864Z,60.40
2019-02-23T23:50:33.214Z,61.20
2019-02-23T23:53:03.300Z,61.00
2019-02-23T23:55:32.616Z,60.50
2019-02-23T23:58:01.992Z,60.10
